createdAt,value
2018-05-18T00:03:10.687Z,14.33
2018-05-18T00:08:11.648Z,14.27
2018-05-18T00:13:12.614Z,14.29
2018-05-18T00:18:13.607Z,14.25
2018-05-18T00:23:14.575Z,14.23
2018-05-18T00:28:15.544Z,14.05
2018-05-18T00:33:16.532Z,14.10
2018-05-18T00:38:17.500Z,13.87
2018-05-18T00:43:18.487Z,13.96
2018-05-18T00:48:19.476Z,14.03
2018-05-18T00:53:20.481Z,14.05
2018-05-18T00:58:21.452Z,14.03
2018-05-18T01:03:22.432Z,13.90
2018-05-18T01:08:23.408Z,13.76
2018-05-18T01:13:24.381Z,13.87
2018-05-18T01:18:25.369Z,13.70
2018-05-18T01:23:26.379Z,13.81
2018-05-18T01:28:27.418Z,13.78
2018-05-18T01:33:28.397Z,13.78
2018-05-18T01:38:29.407Z,13.77
2018-05-18T01:43:30.362Z,13.78
2018-05-18T01:48:31.339Z,13.70
2018-05-18T01:53:32.331Z,13.67
2018-05-18T01:58:33.283Z,13.75
2018-05-18T02:03:34.280Z,13.71
2018-05-18T02:08:35.264Z,13.73
2018-05-18T02:13:36.245Z,13.77
2018-05-18T02:18:37.223Z,13.67
2018-05-18T02:23:38.175Z,13.71
2018-05-18T02:28:39.206Z,13.52
2018-05-18T02:33:40.179Z,13.55
2018-05-18T02:38:41.169Z,13.48
2018-05-18T02:43:42.133Z,13.56
2018-05-18T02:48:43.133Z,13.55
2018-05-18T02:53:44.124Z,13.44
2018-05-18T02:58:45.095Z,13.51
2018-05-18T03:03:46.068Z,13.46
2018-05-18T03:08:47.056Z,13.33
2018-05-18T03:13:48.041Z,13.37
2018-05-18T03:18:48.999Z,13.41
2018-05-18T03:23:49.962Z,13.31
2018-05-18T03:28:50.986Z,13.32
2018-05-18T03:33:51.965Z,13.25
2018-05-18T03:38:52.949Z,13.29
2018-05-18T03:43:53.932Z,13.27
2018-05-18T03:48:54.947Z,13.30
2018-05-18T03:53:55.937Z,13.37
2018-05-18T03:58:56.949Z,13.46
2018-05-18T04:04:10.173Z,13.34
2018-05-18T04:09:11.138Z,13.31
2018-05-18T04:14:12.149Z,13.32
2018-05-18T04:19:13.109Z,13.54
2018-05-18T04:24:14.064Z,13.62
2018-05-18T04:29:15.059Z,13.62
2018-05-18T04:34:16.043Z,13.76
2018-05-18T04:39:17.004Z,13.85
2018-05-18T04:44:18.017Z,13.92
2018-05-18T04:49:19.045Z,13.80
2018-05-18T04:54:20.032Z,13.70
2018-05-18T04:59:21.023Z,13.98
2018-05-18T05:04:22.040Z,14.18
2018-05-18T05:09:23.043Z,14.30
2018-05-18T05:14:24.017Z,14.21
2018-05-18T05:19:24.987Z,14.25
2018-05-18T05:24:25.943Z,14.20
2018-05-18T05:29:26.941Z,14.32
2018-05-18T05:34:27.918Z,14.55
2018-05-18T05:39:28.902Z,14.42
2018-05-18T05:44:29.905Z,14.57
2018-05-18T05:49:30.921Z,14.75
2018-05-18T05:54:31.904Z,14.43
2018-05-18T05:59:32.859Z,14.36
2018-05-18T06:04:33.839Z,14.21
2018-05-18T06:09:34.851Z,14.46
2018-05-18T06:14:35.821Z,14.68
2018-05-18T06:19:36.836Z,15.03
2018-05-18T06:24:37.781Z,15.16
2018-05-18T06:29:38.769Z,15.32
2018-05-18T06:34:39.761Z,15.30
2018-05-18T06:39:40.758Z,15.29
2018-05-18T06:44:41.749Z,15.32
2018-05-18T06:49:42.731Z,15.45
2018-05-18T06:54:43.715Z,15.30
2018-05-18T06:59:44.689Z,15.45
2018-05-18T07:04:45.699Z,15.74
2018-05-18T07:09:46.698Z,15.76
2018-05-18T07:14:47.674Z,15.85
2018-05-18T07:19:48.636Z,15.87
2018-05-18T07:24:49.623Z,16.28
2018-05-18T07:29:50.624Z,16.50
2018-05-18T07:34:51.610Z,16.45
2018-05-18T07:39:52.602Z,16.43
2018-05-18T07:44:53.591Z,16.53
2018-05-18T07:49:59.540Z,16.74
2018-05-18T07:55:00.527Z,17.06
2018-05-18T08:00:01.540Z,17.15
2018-05-18T08:05:02.506Z,17.40
2018-05-18T08:10:03.476Z,17.51
2018-05-18T08:15:04.532Z,18.12
2018-05-18T08:20:05.485Z,17.81
2018-05-18T08:25:06.491Z,18.22
2018-05-18T08:30:07.483Z,17.93
2018-05-18T08:35:08.431Z,17.77
2018-05-18T08:40:09.398Z,17.92
2018-05-18T08:45:10.414Z,17.90
2018-05-18T08:50:11.421Z,18.13
2018-05-18T08:55:12.453Z,17.96
2018-05-18T09:00:13.562Z,17.37
2018-05-18T09:05:14.549Z,17.39
2018-05-18T09:10:15.515Z,17.15
2018-05-18T09:15:16.492Z,17.98
2018-05-18T09:20:17.541Z,17.89
2018-05-18T09:25:18.549Z,17.84
2018-05-18T09:30:19.585Z,18.01
2018-05-18T09:35:20.564Z,18.06
2018-05-18T09:40:21.580Z,18.14
2018-05-18T09:45:22.549Z,18.13
2018-05-18T09:50:23.524Z,18.25
2018-05-18T09:55:24.700Z,17.99
2018-05-18T10:00:25.542Z,17.93
2018-05-18T10:05:26.593Z,18.00
2018-05-18T10:10:27.592Z,18.19
2018-05-18T10:15:28.571Z,18.62
2018-05-18T10:20:29.544Z,18.05
2018-05-18T10:25:30.581Z,18.16
2018-05-18T10:30:31.588Z,18.34
2018-05-18T10:35:32.569Z,17.93
2018-05-18T10:40:33.581Z,17.81
2018-05-18T10:45:34.563Z,18.05
2018-05-18T10:50:35.543Z,18.02
2018-05-18T10:55:36.554Z,18.14
2018-05-18T11:00:37.514Z,18.20
2018-05-18T11:05:38.483Z,18.01
2018-05-18T11:10:39.487Z,18.04
2018-05-18T11:15:40.488Z,18.08
2018-05-18T11:20:41.444Z,17.81
2018-05-18T11:25:42.421Z,18.12
2018-05-18T11:30:43.463Z,18.12
2018-05-18T11:35:44.441Z,18.15
2018-05-18T11:40:45.433Z,18.14
2018-05-18T11:45:46.427Z,18.24
2018-05-18T11:50:47.411Z,18.29
2018-05-18T11:55:48.406Z,18.21
2018-05-18T12:00:49.380Z,18.10
2018-05-18T12:05:50.368Z,18.12
2018-05-18T12:10:51.388Z,18.30
2018-05-18T12:15:52.394Z,18.45
2018-05-18T12:20:53.372Z,18.38
2018-05-18T12:25:54.344Z,18.29
2018-05-18T12:30:55.375Z,18.66
2018-05-18T12:35:56.366Z,18.59
2018-05-18T12:40:57.382Z,18.40
2018-05-18T12:45:58.365Z,18.27
2018-05-18T12:50:59.353Z,18.48
2018-05-18T12:56:00.327Z,18.63
2018-05-18T13:01:01.328Z,18.39
2018-05-18T13:06:02.339Z,18.21
2018-05-18T13:11:03.340Z,18.24
2018-05-18T13:16:04.309Z,18.12
2018-05-18T13:21:05.292Z,18.14
2018-05-18T13:26:06.304Z,18.11
2018-05-18T13:31:07.347Z,18.09
2018-05-18T13:36:08.368Z,17.85
2018-05-18T13:41:09.368Z,18.00
2018-05-18T13:46:10.351Z,17.69
2018-05-18T13:51:11.349Z,17.52
2018-05-18T13:56:12.369Z,17.54
2018-05-18T14:01:13.360Z,17.71
2018-05-18T14:06:14.368Z,17.81
2018-05-18T14:11:15.364Z,17.78
2018-05-18T14:16:16.358Z,17.75
2018-05-18T14:21:17.368Z,18.10
2018-05-18T14:26:18.480Z,18.18
2018-05-18T14:31:19.426Z,18.00
2018-05-18T14:36:20.445Z,17.53
2018-05-18T14:41:21.429Z,17.67
2018-05-18T14:46:22.442Z,17.51
2018-05-18T14:51:23.422Z,17.39
2018-05-18T14:56:24.434Z,16.99
2018-05-18T15:01:25.405Z,17.13
2018-05-18T15:06:26.433Z,17.40
2018-05-18T15:11:27.407Z,17.41
2018-05-18T15:16:28.445Z,17.38
2018-05-18T15:21:29.432Z,17.13
2018-05-18T15:26:30.446Z,17.25
2018-05-18T15:31:31.459Z,17.17
2018-05-18T15:36:32.464Z,16.94
2018-05-18T15:41:33.447Z,16.68
2018-05-18T15:46:34.457Z,16.71
2018-05-18T15:51:35.475Z,16.57
2018-05-18T15:56:36.484Z,16.44
2018-05-18T16:01:37.519Z,16.54
2018-05-18T16:06:38.475Z,16.58
2018-05-18T16:11:39.500Z,16.69
2018-05-18T16:16:40.485Z,15.90
2018-05-18T16:21:41.468Z,16.09
2018-05-18T16:26:42.448Z,16.09
2018-05-18T16:31:43.477Z,16.16
2018-05-18T16:36:44.483Z,16.30
2018-05-18T16:41:45.460Z,16.11
2018-05-18T16:46:46.446Z,16.09
2018-05-18T16:51:47.463Z,16.22
2018-05-18T16:56:48.505Z,16.05
2018-05-18T17:01:49.513Z,16.36
2018-05-18T17:06:50.508Z,16.17
2018-05-18T17:11:51.523Z,16.13
2018-05-18T17:16:52.524Z,15.91
2018-05-18T17:21:53.529Z,15.76
2018-05-18T17:26:54.537Z,15.90
2018-05-18T17:31:55.581Z,15.82
2018-05-18T17:36:56.607Z,16.13
2018-05-18T17:41:57.600Z,16.09
2018-05-18T17:46:58.615Z,15.74
2018-05-18T17:51:59.672Z,15.90
2018-05-18T17:57:00.725Z,15.31
2018-05-18T18:02:01.774Z,15.62
2018-05-18T18:07:03.632Z,15.79
2018-05-18T18:12:04.612Z,15.53
2018-05-18T18:17:05.620Z,15.68
2018-05-18T18:22:06.650Z,15.72
2018-05-18T18:27:07.676Z,15.56
2018-05-18T18:32:08.736Z,15.48
2018-05-18T18:37:09.792Z,15.26
2018-05-18T18:42:10.835Z,15.09
2018-05-18T18:47:11.861Z,15.01
2018-05-18T18:52:12.900Z,15.08
2018-05-18T18:57:13.892Z,15.04
2018-05-18T19:02:14.884Z,15.02
2018-05-18T19:07:15.928Z,15.11
2018-05-18T19:12:16.924Z,14.91
2018-05-18T19:17:17.909Z,15.09
2018-05-18T19:22:18.899Z,15.20
2018-05-18T19:27:19.923Z,14.72
2018-05-18T19:32:21.017Z,14.68
2018-05-18T19:37:22.066Z,14.88
2018-05-18T19:42:23.046Z,14.84
2018-05-18T19:47:24.050Z,14.83
2018-05-18T19:52:25.060Z,14.84
2018-05-18T19:57:26.198Z,14.58
2018-05-18T20:02:27.163Z,14.70
2018-05-18T20:07:28.232Z,14.67
2018-05-18T20:12:29.280Z,14.81
2018-05-18T20:17:30.326Z,14.60
2018-05-18T20:22:31.393Z,14.49
2018-05-18T20:27:32.414Z,14.44
2018-05-18T20:32:33.484Z,14.45
2018-05-18T20:37:34.502Z,14.32
2018-05-18T20:42:35.557Z,14.35
2018-05-18T20:47:36.616Z,13.99
2018-05-18T20:52:37.644Z,14.20
2018-05-18T20:57:38.709Z,14.26
2018-05-18T21:02:39.712Z,14.04
2018-05-18T21:07:40.731Z,14.31
2018-05-18T21:12:41.762Z,14.41
2018-05-18T21:17:42.801Z,14.32
2018-05-18T21:22:43.799Z,14.41
2018-05-18T21:27:44.833Z,14.50
2018-05-18T21:32:45.879Z,14.42
2018-05-18T21:37:46.862Z,14.32
2018-05-18T21:42:47.875Z,14.32
2018-05-18T21:47:48.902Z,14.42
2018-05-18T21:52:49.867Z,14.37
2018-05-18T21:57:50.894Z,14.25
2018-05-18T22:02:51.897Z,14.21
2018-05-18T22:07:52.880Z,14.24
2018-05-18T22:12:53.871Z,14.29
2018-05-18T22:17:55.799Z,14.20
2018-05-18T22:22:56.778Z,14.12
2018-05-18T22:27:57.759Z,14.12
2018-05-18T22:32:58.799Z,14.19
2018-05-18T22:37:59.784Z,14.05
2018-05-18T22:43:00.792Z,14.15
2018-05-18T22:48:01.775Z,14.05
2018-05-18T22:53:02.822Z,14.06
2018-05-18T22:58:03.840Z,14.08
2018-05-18T23:03:04.835Z,13.81
2018-05-18T23:08:05.829Z,13.84
2018-05-18T23:13:06.827Z,13.79
2018-05-18T23:18:07.795Z,13.74
2018-05-18T23:23:08.764Z,13.89
2018-05-18T23:28:09.742Z,13.49
2018-05-18T23:33:10.784Z,13.53
2018-05-18T23:38:12.690Z,13.68
2018-05-18T23:43:13.713Z,13.69
2018-05-18T23:48:14.705Z,13.88
2018-05-18T23:53:15.707Z,13.90
2018-05-18T23:58:17.471Z,13.82
